Time;durP1;ratioP1;P1;durP2;ratioP2;P2;SDS_P1;SDS_P2;PMS_P1;PMS_P2;Temp;Humidity;BMP_temperature;BMP_pressure;BME280_temperature;BME280_humidity;BME280_pressure;Samples;Min_cycle;Max_cycle;Signal;HPM_P1;HPM_P2
2023/01/02 00:00:11;;;;;;;10.18;3.90;;;11.50;99.90;;;;;;5072060;28;20043;-46
2023/01/02 00:02:37;;;;;;;7.15;3.60;;;11.50;99.90;;;;;;5087295;28;20375;-45
2023/01/02 00:05:03;;;;;;;8.77;4.18;;;11.50;99.90;;;;;;5069697;28;20082;-44
2023/01/02 00:07:29;;;;;;;6.13;3.55;;;11.50;99.90;;;;;;5069670;28;20117;-45
2023/01/02 00:09:55;;;;;;;11.80;4.13;;;11.50;99.90;;;;;;5089435;28;20036;-46
2023/01/02 00:12:20;;;;;;;10.05;3.75;;;11.50;99.90;;;;;;5089687;28;20055;-44
2023/01/02 00:14:46;;;;;;;7.57;4.50;;;11.50;99.90;;;;;;5072823;28;20036;-45
2023/01/02 00:17:12;;;;;;;9.75;3.97;;;11.50;99.90;;;;;;5078116;28;20205;-43
2023/01/02 00:19:37;;;;;;;6.00;3.60;;;11.50;99.90;;;;;;5081342;28;20064;-45
2023/01/02 00:22:03;;;;;;;8.15;3.55;;;11.50;99.90;;;;;;5071071;28;20547;-44
2023/01/02 00:24:29;;;;;;;8.68;3.72;;;11.50;99.90;;;;;;5071430;28;20024;-46
2023/01/02 00:26:54;;;;;;;7.15;3.78;;;11.50;99.90;;;;;;5088890;28;20391;-44
2023/01/02 00:29:20;;;;;;;7.57;3.60;;;11.50;99.90;;;;;;5071241;28;20433;-44
2023/01/02 00:31:46;;;;;;;9.00;4.20;;;11.50;99.90;;;;;;5083844;28;20032;-44
2023/01/02 00:34:11;;;;;;;10.48;3.92;;;11.50;99.90;;;;;;5051449;28;20032;-45
2023/01/02 00:36:37;;;;;;;8.57;4.05;;;11.50;99.90;;;;;;5051076;28;20021;-44
2023/01/02 00:39:03;;;;;;;9.40;3.92;;;11.50;99.90;;;;;;5069051;28;20042;-46
2023/01/02 00:41:28;;;;;;;12.45;3.83;;;11.50;99.90;;;;;;5068232;28;20036;-44
2023/01/02 00:43:54;;;;;;;11.75;4.13;;;11.50;99.90;;;;;;5070074;28;20031;-44
2023/01/02 00:46:19;;;;;;;7.15;3.75;;;11.50;99.90;;;;;;5089198;28;20081;-45
2023/01/02 00:48:45;;;;;;;12.80;4.32;;;11.50;99.90;;;;;;5080126;28;20020;-45
2023/01/02 00:51:11;;;;;;;14.55;4.50;;;11.40;99.90;;;;;;5071270;28;20024;-47
2023/01/02 00:53:37;;;;;;;10.30;5.03;;;11.40;99.90;;;;;;5088333;28;20040;-46
2023/01/02 00:56:02;;;;;;;17.80;4.65;;;11.40;99.90;;;;;;5089221;28;20035;-45
2023/01/02 00:58:28;;;;;;;9.82;4.38;;;11.40;99.90;;;;;;5089084;28;20028;-44
2023/01/02 01:00:53;;;;;;;8.77;4.38;;;11.40;99.90;;;;;;5088972;28;20063;-43
2023/01/02 01:03:19;;;;;;;12.10;4.40;;;11.40;99.90;;;;;;5088280;28;20028;-45
2023/01/02 01:05:45;;;;;;;8.40;4.20;;;11.40;99.90;;;;;;5088934;28;20090;-46
2023/01/02 01:08:11;;;;;;;15.15;4.70;;;11.40;99.90;;;;;;5089404;28;20110;-44
2023/01/02 01:10:37;;;;;;;7.85;4.20;;;11.40;99.90;;;;;;5088805;28;20047;-44
2023/01/02 01:13:04;;;;;;;11.23;3.83;;;11.40;99.90;;;;;;5088255;28;20402;-44
2023/01/02 01:15:30;;;;;;;14.00;3.55;;;11.40;99.90;;;;;;5088924;28;20437;-45
2023/01/02 01:17:55;;;;;;;9.13;3.50;;;11.40;99.90;;;;;;5083851;28;20024;-44
2023/01/02 01:20:21;;;;;;;8.25;3.60;;;11.40;99.90;;;;;;5084949;28;20123;-45
2023/01/02 01:22:49;;;;;;;7.30;3.67;;;11.40;99.90;;;;;;5088342;28;20032;-45
2023/01/02 01:25:15;;;;;;;6.25;3.65;;;11.40;99.90;;;;;;5088806;28;20528;-45
2023/01/02 01:27:41;;;;;;;12.52;5.40;;;11.40;99.90;;;;;;5070388;28;20074;-45
2023/01/02 01:30:08;;;;;;;10.38;4.25;;;11.40;99.90;;;;;;5088521;28;20077;-44
2023/01/02 01:32:33;;;;;;;7.68;3.97;;;11.40;99.90;;;;;;5087608;28;20421;-45
2023/01/02 01:34:59;;;;;;;9.45;3.63;;;11.40;99.90;;;;;;5070433;28;20032;-44
2023/01/02 01:37:26;;;;;;;7.65;4.05;;;11.50;99.90;;;;;;5070500;28;20066;-43
2023/01/02 01:39:51;;;;;;;12.10;4.47;;;11.60;99.90;;;;;;5088523;28;20711;-45
2023/01/02 01:42:17;;;;;;;15.13;3.85;;;11.70;99.90;;;;;;5088068;28;20058;-45
2023/01/02 01:44:51;;;;;;;11.95;3.97;;;11.80;99.90;;;;;;5070149;28;20028;-45
2023/01/02 01:47:48;;;;;;;12.25;4.60;;;11.90;99.90;;;;;;5088502;28;20016;-42
2023/01/02 01:50:17;;;;;;;13.38;4.20;;;12.00;99.90;;;;;;5084021;28;20020;-45
2023/01/02 01:53:10;;;;;;;12.43;4.28;;;12.00;99.90;;;;;;5090612;28;20516;-43
2023/01/02 01:55:45;;;;;;;10.57;4.00;;;12.10;99.90;;;;;;5092438;28;20044;-45
2023/01/02 01:58:16;;;;;;;7.70;3.78;;;12.20;99.90;;;;;;5092387;28;20016;-45
2023/01/02 02:00:42;;;;;;;10.27;3.63;;;12.20;99.90;;;;;;5092082;28;20028;-42
2023/01/02 02:03:12;;;;;;;10.25;3.80;;;12.20;99.90;;;;;;5091792;28;20050;-42
2023/01/02 02:05:40;;;;;;;11.30;4.20;;;12.20;99.90;;;;;;5092137;28;20028;-45
2023/01/02 02:08:39;;;;;;;7.20;4.05;;;12.30;99.90;;;;;;5091891;28;20240;-44
2023/01/02 02:11:05;;;;;;;14.87;4.40;;;12.30;99.90;;;;;;5092021;28;20028;-42
2023/01/02 02:13:32;;;;;;;16.35;4.10;;;12.30;99.90;;;;;;5056975;28;20255;-42
2023/01/02 02:16:07;;;;;;;17.00;4.35;;;12.30;99.90;;;;;;5074050;28;20028;-43
2023/01/02 02:18:43;;;;;;;10.27;4.30;;;12.30;99.90;;;;;;5083052;28;20056;-42
2023/01/02 02:21:48;;;;;;;8.20;3.60;;;12.30;99.90;;;;;;5091864;28;20031;-42
2023/01/02 02:24:33;;;;;;;17.05;4.72;;;12.30;99.90;;;;;;5091486;28;20098;-42
2023/01/02 02:27:01;;;;;;;9.10;3.53;;;12.30;99.90;;;;;;5091618;28;20028;-42
2023/01/02 02:29:54;;;;;;;9.30;4.00;;;12.40;99.90;;;;;;5091097;28;20394;-42
2023/01/02 02:32:22;;;;;;;12.80;4.32;;;12.30;99.90;;;;;;5090920;28;20093;-44
2023/01/02 02:35:19;;;;;;;14.00;4.20;;;12.40;99.90;;;;;;5091501;28;20024;-42
2023/01/02 02:38:20;;;;;;;19.70;3.85;;;12.40;99.90;;;;;;5069514;28;20044;-42
2023/01/02 02:40:57;;;;;;;12.88;4.18;;;12.40;99.90;;;;;;5091453;28;20032;-43
2023/01/02 02:43:29;;;;;;;12.95;4.82;;;12.40;99.90;;;;;;5090635;28;20553;-42
2023/01/02 02:46:02;;;;;;;13.32;4.38;;;12.50;99.90;;;;;;5091307;28;20031;-42
2023/01/02 02:48:37;;;;;;;12.80;4.22;;;12.50;99.90;;;;;;5082267;28;20044;-42
2023/01/02 02:51:16;;;;;;;11.65;3.60;;;12.40;99.90;;;;;;5090992;28;20020;-42
2023/01/02 02:53:49;;;;;;;8.98;4.28;;;12.50;99.90;;;;;;5072180;28;20785;-42
2023/01/02 02:56:16;;;;;;;15.38;3.90;;;12.50;99.90;;;;;;5091019;28;20028;-43
2023/01/02 02:58:43;;;;;;;12.60;3.88;;;12.40;99.90;;;;;;5091207;28;20032;-42
2023/01/02 03:01:16;;;;;;;11.93;3.70;;;12.50;99.90;;;;;;5091044;28;20559;-42
2023/01/02 03:03:42;;;;;;;7.47;4.22;;;12.40;99.90;;;;;;5089771;28;20036;-42
2023/01/02 03:06:17;;;;;;;9.80;3.22;;;12.40;99.90;;;;;;5091478;28;20027;-42
2023/01/02 03:09:15;;;;;;;7.95;4.53;;;12.40;99.90;;;;;;5090943;28;20028;-43
2023/01/02 03:11:46;;;;;;;12.13;4.38;;;12.40;99.90;;;;;;5075735;28;20087;-45
2023/01/02 03:14:47;;;;;;;17.13;4.07;;;12.40;99.90;;;;;;5071415;28;20225;-42
2023/01/02 03:17:36;;;;;;;15.43;3.70;;;12.40;99.90;;;;;;5081140;28;20021;-42
2023/01/02 03:20:11;;;;;;;13.02;4.43;;;12.50;99.90;;;;;;5081466;28;20028;-42
2023/01/02 03:22:42;;;;;;;9.13;3.67;;;12.60;99.90;;;;;;5080647;28;20031;-43
2023/01/02 03:25:10;;;;;;;13.85;4.45;;;12.50;99.90;;;;;;5062773;28;20119;-42
2023/01/02 03:27:40;;;;;;;8.95;3.72;;;12.60;99.90;;;;;;5079172;28;20024;-44
2023/01/02 03:30:11;;;;;;;14.98;4.32;;;12.50;99.90;;;;;;5078937;28;20020;-42
2023/01/02 03:32:42;;;;;;;;;;;12.60;99.90;;;;;;5078388;28;20491;-43
2023/01/02 03:35:14;;;;;;;12.07;4.00;;;12.60;99.90;;;;;;5079658;28;19958;-43
2023/01/02 03:37:45;;;;;;;13.02;4.25;;;12.60;99.90;;;;;;5078696;28;20017;-42
2023/01/02 03:40:15;;;;;;;11.30;4.03;;;12.60;99.90;;;;;;5079273;28;20024;-42
2023/01/02 03:42:44;;;;;;;;;;;12.60;99.90;;;;;;5078910;28;20479;-42
2023/01/02 03:45:13;;;;;;;11.90;3.70;;;12.70;99.90;;;;;;5067630;28;20014;-44
2023/01/02 03:47:54;;;;;;;10.40;4.32;;;12.70;99.90;;;;;;5079930;28;20024;-42
2023/01/02 03:50:39;;;;;;;10.65;3.78;;;12.60;99.90;;;;;;5086165;28;20055;-45
2023/01/02 03:53:05;;;;;;;12.02;3.70;;;12.60;99.90;;;;;;5090234;28;20020;-44
2023/01/02 03:55:35;;;;;;;7.43;3.33;;;12.60;99.90;;;;;;5090680;28;20474;-42
2023/01/02 03:58:13;;;;;;;7.32;3.70;;;12.60;99.90;;;;;;5090190;28;20032;-42
2023/01/02 04:00:45;;;;;;;13.27;4.32;;;12.60;99.90;;;;;;5090364;28;20422;-43
2023/01/02 04:03:20;;;;;;;9.15;4.40;;;12.50;99.90;;;;;;5089308;28;20054;-43
2023/01/02 04:06:09;;;;;;;7.22;3.47;;;12.60;99.90;;;;;;5072156;28;20024;-43
2023/01/02 04:08:45;;;;;;;13.85;4.15;;;12.60;99.90;;;;;;5090306;28;20111;-42
2023/01/02 04:11:15;;;;;;;10.77;3.50;;;12.70;99.90;;;;;;5071874;28;20024;-42
2023/01/02 04:13:52;;;;;;;11.25;4.80;;;12.80;99.90;;;;;;5071260;28;20024;-42
2023/01/02 04:16:26;;;;;;;10.57;3.45;;;12.80;99.90;;;;;;5089834;28;20027;-43
2023/01/02 04:19:07;;;;;;;13.48;3.53;;;12.90;99.90;;;;;;5077541;28;20637;-42
2023/01/02 04:21:37;;;;;;;12.50;3.97;;;13.00;99.90;;;;;;5069915;28;20027;-42
2023/01/02 04:24:14;;;;;;;13.93;3.42;;;13.10;99.90;;;;;;5069243;28;20448;-44
2023/01/02 04:26:45;;;;;;;12.98;3.42;;;13.10;99.90;;;;;;5069578;28;20060;-43
2023/01/02 04:29:12;;;;;;;11.82;3.55;;;13.10;99.90;;;;;;5051879;28;20086;-43
2023/01/02 04:31:41;;;;;;;11.05;4.18;;;13.20;99.90;;;;;;5051485;28;20052;-43
2023/01/02 04:34:12;;;;;;;15.83;4.13;;;13.20;99.90;;;;;;5067780;28;20501;-42
2023/01/02 04:36:39;;;;;;;10.35;3.58;;;13.20;99.90;;;;;;5069633;28;20342;-43
2023/01/02 04:39:05;;;;;;;14.05;4.22;;;13.30;99.90;;;;;;5069318;28;20032;-43
2023/01/02 04:41:32;;;;;;;14.20;3.58;;;13.30;99.90;;;;;;5051281;28;20395;-43
2023/01/02 04:43:59;;;;;;;14.70;3.80;;;13.40;99.90;;;;;;5050375;28;20028;-42
2023/01/02 04:46:27;;;;;;;9.55;2.83;;;13.50;99.90;;;;;;5069730;28;20016;-41
2023/01/02 04:48:53;;;;;;;6.90;3.65;;;13.60;99.90;;;;;;5060984;28;20422;-43
2023/01/02 04:51:20;;;;;;;10.35;3.17;;;13.60;99.90;;;;;;5087833;28;20081;-42
2023/01/02 04:53:50;;;;;;;8.57;3.40;;;13.60;99.90;;;;;;5088046;28;20582;-43
2023/01/02 04:56:16;;;;;;;7.75;3.08;;;13.80;99.90;;;;;;5069793;28;20059;-42
2023/01/02 04:58:43;;;;;;;8.18;3.15;;;13.70;99.90;;;;;;5087851;28;20480;-42
2023/01/02 05:01:10;;;;;;;14.88;3.83;;;13.80;99.90;;;;;;5087648;28;20035;-42
2023/01/02 05:03:40;;;;;;;13.15;3.63;;;14.00;99.90;;;;;;5088491;28;20020;-42
2023/01/02 05:06:06;;;;;;;10.68;3.47;;;14.00;99.90;;;;;;5089275;28;20429;-42
2023/01/02 05:08:32;;;;;;;14.32;3.75;;;14.00;99.90;;;;;;5088955;28;20036;-42
2023/01/02 05:11:03;;;;;;;14.25;3.30;;;14.10;99.90;;;;;;5089020;28;20116;-42
2023/01/02 05:13:29;;;;;;;10.50;3.50;;;14.20;99.90;;;;;;5070569;28;20039;-42
2023/01/02 05:15:55;;;;;;;8.48;3.50;;;14.20;99.90;;;;;;5088713;28;20032;-42
2023/01/02 05:18:20;;;;;;;13.23;3.53;;;14.40;99.90;;;;;;5080660;28;20020;-42
2023/01/02 05:20:46;;;;;;;8.20;3.92;;;14.50;99.90;;;;;;5088800;28;20363;-43
2023/01/02 05:25:55;;;;;;;11.85;3.92;;;14.50;99.90;;;;;;5068348;28;20112;-42
2023/01/02 05:28:21;;;;;;;10.57;3.33;;;14.50;99.90;;;;;;5068333;28;20457;-42
2023/01/02 05:30:48;;;;;;;8.25;3.10;;;14.50;99.90;;;;;;5068715;28;20103;-42
2023/01/02 05:33:14;;;;;;;16.17;3.05;;;14.60;99.90;;;;;;5067846;28;20055;-44
2023/01/02 05:35:39;;;;;;;9.77;3.13;;;14.60;99.90;;;;;;5067234;28;20063;-42
2023/01/02 05:38:05;;;;;;;7.57;3.10;;;14.70;99.90;;;;;;5066878;28;20032;-44
2023/01/02 05:40:30;;;;;;;5.22;3.30;;;14.70;99.90;;;;;;5067408;28;20021;-43
2023/01/02 05:42:57;;;;;;;10.32;3.88;;;14.70;99.90;;;;;;5064159;28;20021;-43
2023/01/02 05:45:23;;;;;;;9.65;3.75;;;14.70;99.90;;;;;;5079455;28;20016;-45
2023/01/02 05:47:49;;;;;;;14.07;3.83;;;14.70;99.90;;;;;;5088037;28;20032;-43
2023/01/02 05:50:14;;;;;;;10.32;3.65;;;14.70;99.90;;;;;;5087174;28;20666;-43
2023/01/02 05:52:40;;;;;;;20.08;3.33;;;14.80;99.90;;;;;;5088374;28;20105;-43
2023/01/02 05:55:05;;;;;;;12.95;3.40;;;14.80;99.90;;;;;;5070590;28;20165;-43
2023/01/02 05:57:31;;;;;;;7.82;3.42;;;14.80;99.90;;;;;;5088761;28;20029;-42
2023/01/02 05:59:56;;;;;;;11.20;3.45;;;14.80;99.90;;;;;;5089648;28;20028;-43
2023/01/02 06:02:22;;;;;;;12.00;3.75;;;14.80;99.90;;;;;;5088372;28;20028;-43
2023/01/02 06:04:47;;;;;;;14.77;4.03;;;14.70;99.90;;;;;;5087709;28;20391;-43
2023/01/02 06:07:13;;;;;;;15.70;3.47;;;14.80;99.90;;;;;;5088131;28;20077;-43
2023/01/02 06:09:38;;;;;;;11.90;3.30;;;14.80;99.90;;;;;;5088259;28;20116;-43
2023/01/02 06:13:07;;;;;;;15.77;3.72;;;14.80;99.90;;;;;;5082409;28;20757;-43
2023/01/02 06:15:32;;;;;;;12.88;4.18;;;14.90;99.90;;;;;;5086277;28;20039;-44
2023/01/02 06:17:58;;;;;;;13.88;3.65;;;14.80;99.90;;;;;;5061739;28;20025;-42
2023/01/02 06:20:24;;;;;;;10.80;3.75;;;14.80;99.90;;;;;;5054031;28;20064;-44
2023/01/02 06:22:49;;;;;;;11.07;3.47;;;14.80;99.90;;;;;;5051239;28;20199;-43
2023/01/02 06:25:15;;;;;;;18.23;3.67;;;14.80;99.90;;;;;;5062325;28;20118;-43
2023/01/02 06:27:40;;;;;;;11.00;3.72;;;14.90;99.90;;;;;;5063233;28;20036;-43
2023/01/02 06:30:06;;;;;;;12.80;3.55;;;14.90;99.90;;;;;;5064919;28;20033;-43
2023/01/02 06:32:32;;;;;;;9.27;3.20;;;14.80;99.90;;;;;;5063400;28;20473;-43
2023/01/02 06:34:57;;;;;;;8.10;3.45;;;14.70;99.90;;;;;;5062836;28;20036;-43
2023/01/02 06:37:23;;;;;;;10.55;3.42;;;14.70;99.90;;;;;;5065500;28;20433;-45
2023/01/02 06:39:49;;;;;;;12.80;3.47;;;14.70;99.90;;;;;;5064365;28;20079;-44
2023/01/02 06:42:14;;;;;;;11.10;3.47;;;14.90;99.90;;;;;;5061853;28;20027;-44
2023/01/02 06:44:40;;;;;;;13.32;3.40;;;14.90;99.90;;;;;;5064047;28;20170;-44
2023/01/02 06:47:05;;;;;;;14.35;3.75;;;14.80;99.90;;;;;;5063276;28;20017;-44
2023/01/02 06:49:31;;;;;;;10.13;3.63;;;14.80;99.90;;;;;;5054173;28;20036;-44
2023/01/02 06:51:56;;;;;;;8.00;3.63;;;14.80;99.90;;;;;;5063279;28;20033;-44
2023/01/02 06:54:22;;;;;;;8.15;3.08;;;14.80;99.90;;;;;;5064607;28;20387;-43
2023/01/02 06:56:48;;;;;;;9.50;3.70;;;14.80;99.90;;;;;;5064829;28;20009;-46
2023/01/02 06:59:13;;;;;;;14.82;4.18;;;14.80;99.90;;;;;;5061492;28;20013;-43
2023/01/02 07:01:39;;;;;;;16.38;3.80;;;14.70;99.90;;;;;;5060882;28;20060;-44
2023/01/02 07:04:19;;;;;;;12.10;3.78;;;14.80;99.90;;;;;;5064339;28;20021;-44
2023/01/02 07:06:45;;;;;;;;;;;14.70;99.90;;;;;;5062315;28;20024;-44
2023/01/02 07:09:11;;;;;;;7.05;3.00;;;14.70;99.90;;;;;;5063858;28;19911;-42
2023/01/02 07:11:38;;;;;;;7.88;3.13;;;14.60;99.90;;;;;;5065603;28;20083;-42
2023/01/02 07:14:04;;;;;;;8.10;2.90;;;14.50;99.90;;;;;;5065568;28;20059;-41
2023/01/02 07:16:30;;;;;;;13.02;4.18;;;14.50;99.90;;;;;;5064731;28;20028;-42
2023/01/02 07:18:55;;;;;;;10.88;3.70;;;14.50;99.90;;;;;;5066209;28;20029;-41
2023/01/02 07:21:21;;;;;;;12.90;3.63;;;14.50;99.90;;;;;;5063852;28;20032;-44
2023/01/02 07:23:47;;;;;;;9.85;3.35;;;14.50;99.90;;;;;;5049253;28;20052;-44
2023/01/02 07:26:16;;;;;;;10.57;3.53;;;14.50;99.90;;;;;;5049636;28;20377;-43
2023/01/02 07:28:42;;;;;;;10.10;3.70;;;14.60;99.90;;;;;;5051146;28;20100;-43
2023/01/02 07:31:11;;;;;;;8.60;2.72;;;14.60;99.90;;;;;;5046136;28;20108;-43
2023/01/02 07:33:37;;;;;;;10.43;3.33;;;14.60;99.90;;;;;;5046898;28;20020;-43
2023/01/02 07:36:06;;;;;;;10.07;2.92;;;14.70;99.90;;;;;;5051509;28;20029;-43
2023/01/02 07:38:32;;;;;;;12.90;3.25;;;14.70;99.90;;;;;;5051988;28;20028;-44
2023/01/02 07:40:58;;;;;;;15.88;3.65;;;14.70;99.90;;;;;;5051668;28;20021;-43
2023/01/02 07:43:23;;;;;;;8.88;3.30;;;14.80;99.90;;;;;;5050872;28;20024;-44
2023/01/02 07:45:49;;;;;;;9.27;3.25;;;14.80;99.90;;;;;;5051948;28;20017;-44
2023/01/02 07:48:15;;;;;;;14.80;3.75;;;14.80;99.90;;;;;;5052003;28;20018;-44
2023/01/02 07:50:41;;;;;;;9.10;3.50;;;14.80;99.90;;;;;;5050485;28;20374;-44
2023/01/02 07:53:06;;;;;;;15.43;4.07;;;14.70;99.90;;;;;;5051514;28;20029;-44
2023/01/02 07:55:32;;;;;;;15.38;3.40;;;14.70;99.90;;;;;;5051732;28;20024;-44
2023/01/02 07:57:58;;;;;;;8.30;3.00;;;14.70;99.90;;;;;;5051202;28;20497;-44
2023/01/02 08:00:23;;;;;;;13.50;3.60;;;14.70;99.90;;;;;;5049043;28;20055;-44
2023/01/02 08:02:51;;;;;;;11.65;3.70;;;14.70;99.90;;;;;;5051686;28;20510;-44
2023/01/02 08:05:17;;;;;;;11.23;3.95;;;14.70;99.90;;;;;;5052065;28;20436;-44
2023/01/02 08:07:43;;;;;;;12.27;4.00;;;14.70;99.90;;;;;;5051752;28;20108;-44
2023/01/02 08:10:10;;;;;;;14.15;3.80;;;14.60;99.90;;;;;;5051971;28;20389;-44
2023/01/02 08:12:35;;;;;;;11.95;3.80;;;14.60;99.90;;;;;;5051305;28;20048;-45
2023/01/02 08:15:01;;;;;;;11.45;3.70;;;14.70;99.90;;;;;;5051277;28;20565;-44
2023/01/02 08:17:28;;;;;;;14.50;4.40;;;14.60;99.90;;;;;;5051496;28;20021;-44
2023/01/02 08:19:54;;;;;;;14.27;4.15;;;14.60;99.90;;;;;;5051302;28;20552;-44
2023/01/02 08:22:20;;;;;;;13.55;4.15;;;14.70;99.90;;;;;;5051182;28;20025;-45
2023/01/02 08:24:45;;;;;;;12.95;3.85;;;14.70;99.90;;;;;;5050967;28;20115;-45
2023/01/02 08:27:11;;;;;;;11.57;3.75;;;14.70;99.90;;;;;;5051230;28;20025;-44
2023/01/02 08:29:36;;;;;;;6.80;3.22;;;14.70;99.90;;;;;;5040576;28;20588;-44
2023/01/02 08:32:02;;;;;;;11.18;3.92;;;14.70;99.90;;;;;;5049567;28;20048;-43
2023/01/02 08:34:27;;;;;;;13.63;3.65;;;14.70;99.90;;;;;;5049494;28;20025;-43
2023/01/02 08:36:53;;;;;;;16.30;4.30;;;14.70;99.90;;;;;;5050478;28;20025;-44
2023/01/02 08:39:19;;;;;;;14.32;4.28;;;14.70;99.90;;;;;;5049293;28;20017;-43
2023/01/02 08:41:44;;;;;;;13.05;3.38;;;14.70;99.90;;;;;;5050665;28;20074;-43
2023/01/02 08:44:10;;;;;;;8.43;3.50;;;14.80;99.90;;;;;;5050646;28;20036;-48
2023/01/02 08:46:36;;;;;;;12.93;3.72;;;14.80;99.90;;;;;;5051072;28;20025;-42
2023/01/02 08:49:01;;;;;;;13.18;3.78;;;14.80;99.90;;;;;;5050305;28;20562;-43
2023/01/02 08:51:27;;;;;;;14.40;3.90;;;14.90;99.90;;;;;;5049320;28;20052;-44
2023/01/02 08:53:53;;;;;;;13.68;4.07;;;14.80;99.90;;;;;;5048782;28;20841;-45
2023/01/02 08:56:20;;;;;;;10.23;4.00;;;14.80;99.90;;;;;;5049277;28;20033;-44
2023/01/02 08:58:54;;;;;;;13.57;3.58;;;14.80;99.90;;;;;;5049497;28;20363;-44
2023/01/02 09:01:22;;;;;;;10.70;3.33;;;14.80;99.90;;;;;;5049831;28;20092;-44
2023/01/02 09:03:48;;;;;;;12.70;3.08;;;14.90;99.90;;;;;;5048544;28;20458;-46
2023/01/02 09:06:14;;;;;;;12.80;5.65;;;14.90;99.90;;;;;;5049024;28;20120;-46
2023/01/02 09:08:39;;;;;;;56.60;27.70;;;15.00;99.90;;;;;;5050722;28;20104;-44
2023/01/02 09:11:13;;;;;;;16.40;4.05;;;15.00;99.90;;;;;;5048231;28;20033;-46
2023/01/02 09:13:39;;;;;;;14.10;3.30;;;15.00;99.90;;;;;;5049764;28;20024;-44
2023/01/02 09:16:05;;;;;;;16.10;3.78;;;15.20;99.90;;;;;;5050153;28;20630;-44
2023/01/02 09:18:30;;;;;;;16.77;3.50;;;15.20;99.90;;;;;;5049030;28;20066;-45
2023/01/02 09:20:56;;;;;;;7.47;3.13;;;15.20;99.90;;;;;;5049141;28;20029;-44
2023/01/02 09:23:21;;;;;;;10.73;3.10;;;15.30;99.90;;;;;;5049547;28;20108;-45
2023/01/02 09:25:47;;;;;;;9.05;3.33;;;15.30;99.90;;;;;;5048372;28;20056;-44
2023/01/02 09:28:12;;;;;;;13.85;3.03;;;15.30;99.90;;;;;;5046578;28;20036;-45
2023/01/02 09:30:38;;;;;;;11.77;3.63;;;15.30;99.90;;;;;;5040835;28;20079;-45
2023/01/02 09:33:03;;;;;;;11.73;3.15;;;15.30;99.90;;;;;;5041806;28;20078;-42
2023/01/02 09:35:29;;;;;;;7.60;2.85;;;15.30;99.90;;;;;;5040234;28;20029;-43
2023/01/02 09:37:54;;;;;;;10.02;2.80;;;15.30;99.90;;;;;;5048115;28;20071;-43
2023/01/02 09:40:20;;;;;;;12.10;3.38;;;15.30;99.90;;;;;;5048275;28;20346;-44
2023/01/02 09:42:49;;;;;;;8.05;3.33;;;15.40;99.90;;;;;;5043732;28;20120;-45
2023/01/02 09:45:14;;;;;;;10.00;3.25;;;15.40;99.90;;;;;;5048565;28;20031;-43
2023/01/02 09:47:44;;;;;;;9.93;4.00;;;15.40;99.90;;;;;;5047674;28;20108;-43
2023/01/02 09:50:15;;;;;;;10.05;3.25;;;15.30;99.90;;;;;;5045881;28;20089;-44
2023/01/02 09:52:44;;;;;;;15.70;3.20;;;15.30;99.90;;;;;;5047953;28;21625;-45
2023/01/02 09:55:15;;;;;;;15.60;3.63;;;15.30;99.90;;;;;;5047211;28;20025;-46
2023/01/02 09:58:01;;;;;;;13.85;3.15;;;15.30;99.90;;;;;;5048978;28;20505;-42
2023/01/02 10:00:34;;;;;;;12.32;3.10;;;15.40;99.90;;;;;;5046830;28;20051;-43
2023/01/02 10:03:10;;;;;;;10.38;2.67;;;15.40;99.90;;;;;;5048599;28;20100;-44
2023/01/02 10:06:00;;;;;;;11.63;3.03;;;15.40;99.90;;;;;;5046810;28;20116;-44
2023/01/02 10:08:56;;;;;;;10.47;2.97;;;15.50;99.90;;;;;;5046796;28;20470;-44
2023/01/02 10:11:49;;;;;;;10.25;3.00;;;15.70;99.90;;;;;;5048558;28;20613;-45
2023/01/02 10:14:45;;;;;;;7.00;2.78;;;15.60;99.90;;;;;;5047152;28;20474;-44
2023/01/02 10:17:14;;;;;;;9.25;3.50;;;15.60;99.90;;;;;;5046391;28;20013;-45
2023/01/02 10:19:52;;;;;;;12.98;3.45;;;15.60;99.90;;;;;;5048513;28;20017;-44
2023/01/02 10:22:45;;;;;;;8.45;2.88;;;15.60;99.90;;;;;;5046636;28;20033;-44
2023/01/02 10:25:21;;;;;;;9.60;2.63;;;15.60;99.90;;;;;;5048073;28;20098;-44
2023/01/02 10:27:55;;;;;;;10.23;2.70;;;15.60;99.90;;;;;;5046848;28;20050;-44
2023/01/02 10:30:26;;;;;;;8.02;2.80;;;15.70;99.90;;;;;;5044445;28;20063;-44
2023/01/02 10:33:04;;;;;;;12.45;2.67;;;15.70;99.90;;;;;;5048180;28;20029;-44
2023/01/02 10:35:41;;;;;;;7.88;3.08;;;15.80;99.90;;;;;;5046820;28;20021;-46
2023/01/02 10:38:12;;;;;;;12.85;3.42;;;16.00;99.90;;;;;;5046875;28;20021;-49
2023/01/02 10:40:41;;;;;;;9.70;2.92;;;16.00;99.90;;;;;;5048839;28;20428;-49
2023/01/02 10:43:09;;;;;;;10.13;3.30;;;16.10;99.90;;;;;;5048522;28;20071;-47
2023/01/02 10:45:35;;;;;;;8.77;2.70;;;16.20;99.90;;;;;;5047841;28;20060;-47
2023/01/02 10:48:00;;;;;;;9.30;2.70;;;16.10;99.90;;;;;;5048108;28;20056;-47
2023/01/02 10:50:30;;;;;;;8.32;2.92;;;16.10;99.90;;;;;;5046492;28;20025;-50
2023/01/02 10:53:08;;;;;;;11.77;4.20;;;16.00;99.90;;;;;;5046812;28;20037;-49
2023/01/02 10:55:41;;;;;;;10.30;3.33;;;16.30;99.90;;;;;;5045949;28;20345;-50
2023/01/02 10:58:27;;;;;;;10.88;3.45;;;16.40;99.90;;;;;;5046623;28;20013;-49
2023/01/02 11:01:12;;;;;;;8.48;3.40;;;16.30;99.90;;;;;;5049646;28;20324;-47
2023/01/02 11:03:38;;;;;;;11.43;3.63;;;16.10;99.90;;;;;;5048926;28;20262;-50
2023/01/02 11:06:16;;;;;;;10.10;3.10;;;15.90;99.90;;;;;;5050815;28;20045;-49
2023/01/02 11:08:41;;;;;;;14.20;3.38;;;15.70;99.90;;;;;;5051165;28;20379;-48
2023/01/02 11:11:15;;;;;;;14.82;3.33;;;15.70;99.90;;;;;;5050738;28;20025;-47
2023/01/02 11:13:46;;;;;;;10.68;2.75;;;15.60;99.90;;;;;;5050210;28;20021;-47
2023/01/02 11:16:13;;;;;;;;;;;15.50;99.90;;;;;;5050396;28;20025;-48
2023/01/02 11:18:40;;;;;;;12.07;2.92;;;15.50;99.90;;;;;;5050727;28;19959;-47
2023/01/02 11:21:07;;;;;;;9.63;2.63;;;15.40;99.90;;;;;;5051754;28;20081;-48
2023/01/02 11:23:39;;;;;;;9.88;2.95;;;15.40;99.90;;;;;;5051070;28;20118;-47
2023/01/02 11:26:12;;;;;;;11.10;3.10;;;15.40;99.90;;;;;;5051420;28;20727;-50
2023/01/02 11:28:39;;;;;;;12.90;3.20;;;15.30;99.90;;;;;;5050967;28;20017;-47
2023/01/02 11:31:08;;;;;;;9.75;3.30;;;15.20;99.90;;;;;;5051288;28;20025;-47
2023/01/02 11:33:35;;;;;;;5.60;2.60;;;15.10;99.90;;;;;;5050703;28;20025;-47
2023/01/02 11:36:13;;;;;;;15.00;3.55;;;15.10;99.90;;;;;;5051203;28;20309;-47
2023/01/02 11:38:52;;;;;;;9.65;2.80;;;14.90;99.90;;;;;;5049531;28;20025;-48
2023/01/02 11:43:47;;;;;;;7.13;2.83;;;14.80;99.90;;;;;;5050977;28;20044;-48
2023/01/02 11:44:23;;;;;;;8.38;3.10;;;14.40;99.90;;;;;;5051146;28;20041;-47
2023/01/02 11:46:49;;;;;;;10.65;3.05;;;13.90;99.90;;;;;;5050915;28;20025;-47
2023/01/02 11:49:23;;;;;;;6.55;2.70;;;13.50;99.90;;;;;;5049206;28;20025;-48
2023/01/02 11:52:02;;;;;;;9.85;4.72;;;13.40;99.90;;;;;;5050234;28;20025;-47
2023/01/02 11:54:38;;;;;;;6.65;3.30;;;13.20;99.90;;;;;;5050804;28;20033;-47
2023/01/02 11:57:23;;;;;;;12.48;2.95;;;13.10;99.90;;;;;;5051133;28;20032;-47
2023/01/02 11:59:51;;;;;;;7.28;2.72;;;13.00;99.90;;;;;;5051002;28;20067;-51
2023/01/02 12:02:29;;;;;;;8.48;2.88;;;13.00;99.90;;;;;;5049108;28;20086;-47
2023/01/02 12:04:55;;;;;;;8.55;2.80;;;13.00;99.90;;;;;;5048835;28;20054;-47
2023/01/02 12:07:46;;;;;;;12.07;2.78;;;13.00;99.90;;;;;;5050742;28;20079;-48
2023/01/02 12:10:14;;;;;;;;;;;13.00;99.90;;;;;;5051778;28;20033;-47
2023/01/02 12:13:10;;;;;;;9.13;2.85;;;13.00;99.90;;;;;;5049427;28;20003;-47
2023/01/02 12:15:55;;;;;;;5.15;2.22;;;13.10;99.90;;;;;;5047886;28;20029;-47
2023/01/02 12:18:57;;;;;;;6.25;2.67;;;13.10;99.90;;;;;;5052000;28;20086;-47
2023/01/02 12:21:55;;;;;;;8.43;2.58;;;13.10;99.90;;;;;;5052187;28;20029;-47
2023/01/02 12:24:46;;;;;;;6.32;2.60;;;13.20;99.90;;;;;;5051361;28;20025;-47
2023/01/02 12:27:48;;;;;;;6.03;2.30;;;13.20;99.90;;;;;;5050644;28;20040;-47
2023/01/02 12:30:18;;;;;;;12.85;2.53;;;13.30;99.90;;;;;;5045784;28;20143;-46
2023/01/02 12:33:34;;;;;;;8.10;2.67;;;13.40;99.90;;;;;;5044213;28;20024;-46
2023/01/02 12:36:47;;;;;;;8.80;2.55;;;13.30;99.90;;;;;;5034119;28;20032;-47
2023/01/02 12:39:49;;;;;;;4.47;2.08;;;13.30;99.90;;;;;;5036267;28;20045;-46
2023/01/02 12:42:39;;;;;;;7.78;1.88;;;13.40;99.90;;;;;;5041899;28;20032;-47
2023/01/02 12:45:12;;;;;;;;;;;13.40;99.90;;;;;;5045261;28;20032;-47
2023/01/02 12:47:41;;;;;;;3.88;1.70;;;13.40;99.90;;;;;;5041997;28;19920;-48
2023/01/02 12:50:22;;;;;;;3.58;1.85;;;13.30;99.90;;;;;;5040732;28;20025;-47
2023/01/02 12:53:19;;;;;;;8.77;2.00;;;13.20;99.90;;;;;;5043588;28;20393;-48
2023/01/02 12:55:51;;;;;;;4.38;1.67;;;13.10;99.90;;;;;;5041936;28;20707;-47
2023/01/02 12:58:47;;;;;;;5.03;2.03;;;13.00;99.90;;;;;;5040124;28;20446;-47
2023/01/02 13:01:34;;;;;;;3.75;1.67;;;13.00;99.90;;;;;;5044161;28;20031;-49
2023/01/02 13:04:08;;;;;;;4.93;1.58;;;12.90;99.90;;;;;;5041196;28;20083;-47
2023/01/02 13:06:55;;;;;;;3.85;1.98;;;12.80;99.90;;;;;;5041573;28;20095;-47